Time;durP1;ratioP1;P1;durP2;ratioP2;P2;SDS_P1;SDS_P2;PMS_P1;PMS_P2;Temp;Humidity;BMP_temperature;BMP_pressure;BME280_temperature;BME280_humidity;BME280_pressure;Samples;Min_cycle;Max_cycle;Signal;HPM_P1;HPM_P2
2023/01/09 07:06:37;;;;;;;5.38;2.85;;;;;;;6.85;100.00;99242.47;5323020;27;20403;-72
2023/01/09 07:09:12;;;;;;;5.30;2.40;;;;;;;6.86;100.00;99266.13;5322652;28;20027;-73
2023/01/09 07:11:43;;;;;;;6.28;2.75;;;;;;;6.90;100.00;99250.63;5322305;28;20055;-72
2023/01/09 07:14:14;;;;;;;5.15;2.45;;;;;;;6.89;100.00;99261.94;5312729;28;20070;-73
2023/01/09 07:16:46;;;;;;;6.30;2.17;;;;;;;6.92;100.00;99259.41;5301279;28;20024;-74
2023/01/09 07:19:17;;;;;;;7.38;2.33;;;;;;;6.91;100.00;99263.28;5300674;28;20210;-74
2023/01/09 07:21:48;;;;;;;5.93;2.40;;;;;;;6.92;100.00;99273.19;5301223;28;20108;-74
2023/01/09 07:24:20;;;;;;;4.07;2.83;;;;;;;6.96;100.00;99263.19;5301484;28;20409;-74
2023/01/09 07:26:51;;;;;;;8.93;5.43;;;;;;;6.95;100.00;99275.34;5300812;28;20016;-74
2023/01/09 07:29:22;;;;;;;5.32;2.55;;;;;;;6.95;100.00;99283.63;5301117;28;20027;-74
2023/01/09 07:31:53;;;;;;;8.57;2.85;;;;;;;6.96;100.00;99281.66;5301540;28;20077;-74
2023/01/09 07:34:25;;;;;;;5.88;2.90;;;;;;;6.87;100.00;99292.56;5300453;28;20056;-75
2023/01/09 07:36:56;;;;;;;7.50;2.47;;;;;;;6.86;100.00;99293.69;5300511;28;20078;-75
2023/01/09 07:39:27;;;;;;;6.53;2.63;;;;;;;6.85;100.00;99303.09;5303477;28;20148;-74
2023/01/09 07:41:59;;;;;;;7.70;2.75;;;;;;;6.85;100.00;99305.84;5300987;28;20493;-74
2023/01/09 07:44:30;;;;;;;9.52;3.70;;;;;;;6.83;100.00;99305.31;5300795;28;20028;-74
2023/01/09 07:47:01;;;;;;;4.60;2.45;;;;;;;6.85;100.00;99310.50;5300054;28;20116;-74
2023/01/09 07:49:33;;;;;;;5.95;3.50;;;;;;;6.88;100.00;99319.00;5320439;28;20079;-74
2023/01/09 07:52:05;;;;;;;5.25;2.63;;;;;;;6.92;100.00;99313.69;5320749;28;20073;-75
2023/01/09 07:54:39;;;;;;;8.80;3.25;;;;;;;6.90;100.00;99322.28;5316549;28;20458;-74
2023/01/09 07:57:10;;;;;;;5.38;2.40;;;;;;;6.91;100.00;99323.09;5299343;28;20013;-74
2023/01/09 07:59:41;;;;;;;6.90;2.58;;;;;;;6.91;100.00;99321.16;5299563;28;20036;-75
2023/01/09 08:02:13;;;;;;;7.00;2.35;;;;;;;6.88;100.00;99319.00;5298757;28;20023;-74
2023/01/09 08:04:44;;;;;;;6.13;2.40;;;;;;;6.92;100.00;99336.56;5300900;28;20047;-75
2023/01/09 08:07:15;;;;;;;4.65;2.83;;;;;;;6.88;100.00;99335.56;5300250;28;20017;-74
2023/01/09 08:09:47;;;;;;;5.18;2.55;;;;;;;6.92;100.00;99333.00;5299300;28;20024;-73
2023/01/09 08:12:18;;;;;;;6.68;2.67;;;;;;;6.90;100.00;99344.34;5300805;28;20557;-75
2023/01/09 08:14:50;;;;;;;5.55;2.10;;;;;;;6.89;100.00;99345.44;5299267;28;20052;-74
2023/01/09 08:17:24;;;;;;;7.75;3.03;;;;;;;6.90;100.00;99351.75;5290042;28;20040;-74
2023/01/09 08:19:55;;;;;;;6.32;2.42;;;;;;;6.84;100.00;99352.97;5286073;28;20021;-74
2023/01/09 08:22:27;;;;;;;4.82;2.70;;;;;;;6.86;100.00;99361.78;5290419;28;20027;-74
2023/01/09 08:24:58;;;;;;;4.85;2.83;;;;;;;6.80;100.00;99358.28;5285958;28;20102;-74
2023/01/09 08:27:29;;;;;;;7.60;3.35;;;;;;;6.83;100.00;99371.47;5286098;28;20020;-74
2023/01/09 08:30:01;;;;;;;4.57;2.72;;;;;;;6.78;100.00;99373.50;5284622;28;20022;-73
2023/01/09 08:32:32;;;;;;;5.68;2.30;;;;;;;6.74;100.00;99379.56;5285702;28;20043;-74
2023/01/09 08:35:04;;;;;;;7.30;2.90;;;;;;;6.84;100.00;99386.88;5285741;28;20023;-74
2023/01/09 08:37:35;;;;;;;5.97;3.03;;;;;;;6.78;100.00;99399.09;5284980;28;20028;-73
2023/01/09 08:40:10;;;;;;;6.50;3.10;;;;;;;6.79;100.00;99409.00;5302405;28;20016;-74
2023/01/09 08:48:22;;;;;;;10.88;3.22;;;;;;;6.77;100.00;99410.41;5288941;28;20036;-74
2023/01/09 08:50:54;;;;;;;5.10;2.65;;;;;;;6.79;100.00;99411.75;5305852;28;20099;-73
2023/01/09 08:53:25;;;;;;;9.25;3.03;;;;;;;6.78;100.00;99417.56;5306609;28;20455;-73
2023/01/09 08:55:56;;;;;;;7.53;3.53;;;;;;;6.75;100.00;99428.06;5299272;28;20024;-73
2023/01/09 08:58:28;;;;;;;6.32;3.60;;;;;;;6.71;100.00;99431.72;5284552;28;20021;-73
2023/01/09 09:01:04;;;;;;;4.38;2.53;;;;;;;6.71;100.00;99451.00;5285465;28;20095;-73
2023/01/09 09:03:35;;;;;;;4.53;2.58;;;;;;;6.71;100.00;99448.25;5283264;28;20021;-74
2023/01/09 09:06:06;;;;;;;3.95;2.42;;;;;;;6.71;100.00;99451.00;5284885;28;20045;-74
2023/01/09 09:08:41;;;;;;;7.90;2.72;;;;;;;6.70;100.00;99455.69;5285435;28;20048;-74
2023/01/09 09:11:12;;;;;;;5.22;2.47;;;;;;;6.71;100.00;99460.09;5284385;28;20032;-74
2023/01/09 09:13:43;;;;;;;6.38;2.85;;;;;;;6.74;100.00;99466.94;5298489;28;20024;-73
2023/01/09 09:16:14;;;;;;;6.53;2.75;;;;;;;6.70;100.00;99461.22;5305860;28;20094;-74
2023/01/09 09:18:46;;;;;;;6.07;2.90;;;;;;;6.74;100.00;99469.69;5305481;28;20024;-74
2023/01/09 09:21:17;;;;;;;6.40;2.83;;;;;;;6.75;100.00;99480.44;5306721;28;20028;-73
2023/01/09 09:23:50;;;;;;;7.70;2.70;;;;;;;6.73;100.00;99482.66;5306175;28;20024;-75
2023/01/09 09:26:21;;;;;;;6.90;2.60;;;;;;;6.72;100.00;99491.19;5305197;28;20133;-74
2023/01/09 09:28:59;;;;;;;5.75;2.55;;;;;;;6.72;100.00;99493.97;5296399;28;20104;-74
2023/01/09 09:31:30;;;;;;;6.93;2.70;;;;;;;6.74;100.00;99500.81;5304992;28;20494;-74
2023/01/09 09:34:01;;;;;;;4.20;2.53;;;;;;;6.70;100.00;99504.47;5305445;28;20032;-74
2023/01/09 09:36:33;;;;;;;4.80;2.90;;;;;;;6.72;100.00;99507.72;5305664;28;20063;-73
2023/01/09 09:39:06;;;;;;;4.00;2.95;;;;;;;6.74;100.00;99514.59;5304768;28;20471;-73
2023/01/09 09:44:43;;;;;;;7.07;3.33;;;;;;;6.76;100.00;99525.31;5302831;28;20028;-73
2023/01/09 09:47:30;;;;;;;9.40;3.55;;;;;;;6.73;100.00;99525.94;5292471;28;20028;-73
2023/01/09 09:50:29;;;;;;;5.80;2.72;;;;;;;6.72;100.00;99540.81;5289834;28;20017;-74
2023/01/09 09:53:18;;;;;;;5.93;3.05;;;;;;;6.77;100.00;99553.69;5283698;28;20033;-72
2023/01/09 09:55:53;;;;;;;6.95;3.17;;;;;;;6.79;100.00;99554.22;5292671;28;20012;-71
2023/01/09 09:58:34;;;;;;;5.60;2.85;;;;;;;6.84;100.00;99563.25;5283955;28;20036;-71
2023/01/09 10:01:08;;;;;;;9.07;4.32;;;;;;;6.83;100.00;99567.13;5283144;28;20463;-71
2023/01/09 10:03:45;;;;;;;5.20;2.83;;;;;;;6.83;100.00;99569.88;5290707;28;20073;-71
2023/01/09 10:06:25;;;;;;;8.30;3.63;;;;;;;6.90;100.00;99577.75;5291584;28;20048;-74
2023/01/09 10:09:19;;;;;;;6.40;3.38;;;;;;;6.92;100.00;99584.63;5283754;28;20025;-73
2023/01/09 10:12:25;;;;;;;5.78;3.40;;;;;;;7.00;100.00;99593.34;5284227;28;20475;-76
2023/01/09 10:15:08;;;;;;;4.78;3.63;;;;;;;6.98;100.00;99596.44;5283624;28;20021;-74
2023/01/09 10:18:20;;;;;;;8.20;3.58;;;;;;;6.99;100.00;99602.75;5284471;28;20022;-74
2023/01/09 10:20:57;;;;;;;8.77;4.20;;;;;;;6.97;100.00;99598.34;5283239;28;20037;-74
2023/01/09 10:23:43;;;;;;;4.68;3.65;;;;;;;6.96;100.00;99604.97;5283622;28;20025;-75
2023/01/09 10:26:26;;;;;;;7.43;3.95;;;;;;;7.00;100.00;99615.41;5299507;28;20357;-74
2023/01/09 10:29:40;;;;;;;6.30;3.40;;;;;;;6.98;100.00;99621.22;5296522;28;20090;-81
2023/01/09 10:32:29;;;;;;;4.10;3.55;;;;;;;7.00;100.00;99623.66;5284093;28;20029;-73
2023/01/09 10:35:19;;;;;;;7.72;3.70;;;;;;;6.94;100.00;99620.16;5290942;28;20056;-74
2023/01/09 10:37:54;;;;;;;5.93;3.47;;;;;;;6.94;100.00;99622.94;5298143;28;20028;-74
2023/01/09 10:40:31;;;;;;;7.03;3.90;;;;;;;6.96;100.00;99624.28;5283302;28;20028;-73
2023/01/09 10:43:16;;;;;;;7.40;3.60;;;;;;;6.99;100.00;99630.31;5282162;28;20474;-74
2023/01/09 10:45:53;;;;;;;9.25;3.58;;;;;;;6.97;100.00;99620.38;5282831;28;20074;-74
2023/01/09 10:48:36;;;;;;;7.53;3.65;;;;;;;7.01;100.00;99619.81;5283371;28;20020;-78
2023/01/09 10:51:18;;;;;;;6.80;3.92;;;;;;;7.02;100.00;99624.22;5282565;28;20067;-79
2023/01/09 10:53:56;;;;;;;10.68;3.88;;;;;;;6.97;100.00;99628.66;5283645;28;20044;-79
2023/01/09 10:56:31;;;;;;;7.38;4.15;;;;;;;6.95;100.00;99639.19;5302367;28;20056;-78
2023/01/09 10:59:02;;;;;;;7.65;3.63;;;;;;;7.01;100.00;99639.94;5305226;28;20022;-78
2023/01/09 11:01:39;;;;;;;14.05;5.47;;;;;;;7.06;100.00;99644.56;5304493;28;20040;-78
2023/01/09 11:04:24;;;;;;;8.40;3.65;;;;;;;7.13;100.00;99648.59;5299775;28;20532;-78
2023/01/09 11:07:01;;;;;;;10.32;5.10;;;;;;;7.12;100.00;99646.94;5283732;28;20438;-75
2023/01/09 11:10:21;;;;;;;11.27;4.03;;;;;;;7.14;100.00;99653.00;5283071;28;20044;-75
2023/01/09 11:13:12;;;;;;;5.32;3.80;;;;;;;7.11;100.00;99647.25;5297836;28;20118;-75
2023/01/09 11:15:44;;;;;;;9.48;3.70;;;;;;;7.06;100.00;99644.56;5304137;28;20071;-75
2023/01/09 11:18:23;;;;;;;7.00;3.33;;;;;;;7.06;100.00;99637.09;5303489;28;20035;-76
2023/01/09 11:20:55;;;;;;;11.05;4.32;;;;;;;7.09;100.00;99646.72;5304301;28;20394;-76
2023/01/09 11:23:32;;;;;;;6.30;4.45;;;;;;;7.14;100.00;99654.94;5303736;28;20024;-75
2023/01/09 11:26:04;;;;;;;6.00;4.50;;;;;;;7.20;100.00;99656.50;5303218;28;20096;-76
2023/01/09 11:28:36;;;;;;;7.30;4.40;;;;;;;7.25;100.00;99661.94;5299454;28;20494;-76
2023/01/09 11:31:07;;;;;;;9.00;4.38;;;;;;;7.30;100.00;99667.38;5286202;28;20024;-69
2023/01/09 11:33:48;;;;;;;5.60;4.28;;;;;;;7.39;100.00;99667.56;5302380;28;20482;-69
2023/01/09 11:36:24;;;;;;;9.13;5.38;;;;;;;7.42;100.00;99666.97;5303573;28;20101;-70
2023/01/09 11:39:01;;;;;;;10.55;5.53;;;;;;;7.39;100.00;99670.31;5302289;28;20032;-68
2023/01/09 11:41:34;;;;;;;6.05;3.92;;;;;;;7.40;100.00;99683.78;5303696;28;20081;-70
2023/01/09 11:44:14;;;;;;;55.58;49.75;;;;;;;7.38;100.00;99686.03;5295910;28;20028;-70
2023/01/09 11:46:45;;;;;;;8.95;6.65;;;;;;;7.42;100.00;99683.50;5295869;28;20024;-70
2023/01/09 11:49:16;;;;;;;8.50;5.38;;;;;;;7.41;100.00;99695.63;5303701;28;20043;-71
2023/01/09 11:52:10;;;;;;;6.50;4.50;;;;;;;7.46;100.00;99694.75;5304002;28;20032;-70
2023/01/09 11:55:05;;;;;;;7.65;6.25;;;;;;;7.65;100.00;99698.34;5306727;28;20032;-70
2023/01/09 11:57:36;;;;;;;8.10;5.43;;;;;;;7.56;100.00;99698.19;5307980;28;20020;-74
2023/01/09 12:00:44;;;;;;;8.27;4.68;;;;;;;7.63;100.00;99697.84;5303881;28;20082;-73
2023/01/09 12:03:45;;;;;;;6.35;4.63;;;;;;;7.52;100.00;99693.59;5249477;28;20036;-75
2023/01/09 12:06:38;;;;;;;7.38;4.97;;;;;;;7.56;100.00;99687.16;5291000;28;20119;-75
2023/01/09 12:09:38;;;;;;;7.60;4.38;;;;;;;7.53;100.00;99689.69;5291919;28;20414;-72
2023/01/09 12:12:18;;;;;;;9.07;3.95;;;;;;;7.51;100.00;99700.19;5263487;28;20033;-71
2023/01/09 12:14:59;;;;;;;7.05;4.78;;;;;;;7.48;100.00;99698.03;5286744;28;20024;-81
2023/01/09 12:17:49;;;;;;;8.45;4.13;;;;;;;7.55;100.00;99695.75;5289504;28;20028;-81
2023/01/09 12:20:29;;;;;;;12.25;5.82;;;;;;;7.56;100.00;99698.19;5292066;28;20056;-78
2023/01/09 12:23:19;;;;;;;7.85;3.80;;;;;;;7.57;100.00;99710.88;5288692;28;20040;-76
2023/01/09 12:26:20;;;;;;;8.70;4.53;;;;;;;7.54;100.00;99694.94;5287351;28;20024;-75
2023/01/09 12:29:16;;;;;;;8.60;3.88;;;;;;;7.48;100.00;99709.91;5285733;28;20418;-75
2023/01/09 12:31:50;;;;;;;;;;;;;;;7.52;100.00;99712.91;5301327;28;20029;-81
2023/01/09 12:34:44;;;;;;;7.72;4.05;;;;;;;7.39;100.00;99709.75;5299527;28;19912;-80
2023/01/09 12:37:22;;;;;;;7.07;3.90;;;;;;;7.49;100.00;99719.00;5299323;28;20487;-80
2023/01/09 12:40:23;;;;;;;6.53;4.78;;;;;;;7.58;100.00;99712.50;5290896;28;20044;-81
2023/01/09 12:42:54;;;;;;;9.27;4.97;;;;;;;7.60;100.00;99715.81;5293512;28;20024;-82
2023/01/09 12:45:43;;;;;;;8.73;4.75;;;;;;;7.73;100.00;99710.66;5310814;28;20085;-79
2023/01/09 12:48:43;;;;;;;25.85;21.67;;;;;;;7.84;100.00;99706.63;5298654;28;20040;-80
2023/01/09 12:51:23;;;;;;;19.45;13.93;;;;;;;7.92;100.00;99710.66;5311377;28;20028;-79
2023/01/09 12:54:25;;;;;;;6.40;4.63;;;;;;;7.91;100.00;99709.03;5306913;28;20032;-89
2023/01/09 12:57:03;;;;;;;9.50;4.93;;;;;;;7.88;100.00;99715.16;5299776;28;20045;-87
2023/01/09 12:59:55;;;;;;;7.60;5.18;;;;;;;7.89;100.00;99723.13;5319489;28;20027;-83
2023/01/09 13:02:38;;;;;;;10.50;5.28;;;;;;;7.89;100.00;99725.06;5330912;28;20028;-80
2023/01/09 13:05:19;;;;;;;7.45;5.20;;;;;;;7.94;100.00;99731.31;5301718;28;20113;-83
2023/01/09 13:07:55;;;;;;;8.88;5.28;;;;;;;7.91;100.00;99728.34;5286612;28;20053;-88
2023/01/09 13:10:48;;;;;;;7.28;4.55;;;;;;;7.92;100.00;99735.50;5291534;28;20047;-90
2023/01/09 13:13:43;;;;;;;13.23;7.10;;;;;;;7.85;100.00;99752.44;5305542;28;20028;-86
2023/01/09 13:16:20;;;;;;;6.07;5.03;;;;;;;7.84;100.00;99756.31;5287510;28;20028;-85
2023/01/09 13:19:14;;;;;;;10.55;5.43;;;;;;;7.78;100.00;99760.28;5304655;28;20032;-80
2023/01/09 13:21:46;;;;;;;7.57;5.35;;;;;;;7.75;100.00;99766.41;5307069;28;20028;-85
2023/01/09 13:24:33;;;;;;;5.47;4.70;;;;;;;7.75;100.00;99767.22;5291240;28;20076;-84
2023/01/09 13:27:07;;;;;;;9.95;6.07;;;;;;;7.72;100.00;99772.47;5285893;28;20416;-82
2023/01/09 13:29:42;;;;;;;8.25;5.03;;;;;;;7.75;100.00;99778.25;5287462;28;20054;-80
2023/01/09 13:32:32;;;;;;;10.20;5.57;;;;;;;7.77;100.00;99780.69;5286598;28;20025;-77
2023/01/09 13:35:03;;;;;;;11.80;5.72;;;;;;;7.78;100.00;99780.41;5284852;28;20128;-77
2023/01/09 13:37:39;;;;;;;9.63;5.63;;;;;;;7.75;100.00;99789.28;5297345;28;20110;-78
2023/01/09 13:40:22;;;;;;;13.07;6.50;;;;;;;7.80;100.00;99786.47;5285815;28;20036;-78
2023/01/09 13:42:56;;;;;;;8.95;6.32;;;;;;;7.81;100.00;99782.56;5295470;28;20115;-77
2023/01/09 13:45:30;;;;;;;7.90;6.10;;;;;;;7.87;100.00;99786.06;5291424;28;20086;-77
2023/01/09 13:48:08;;;;;;;9.15;7.15;;;;;;;7.91;100.00;99798.19;5285182;28;20435;-79
2023/01/09 13:50:43;;;;;;;7.80;7.00;;;;;;;8.01;100.00;99797.22;5292554;28;20032;-80
2023/01/09 13:53:26;;;;;;;6.75;5.50;;;;;;;7.95;100.00;99806.69;5283955;28;20051;-77
2023/01/09 13:55:58;;;;;;;9.98;6.32;;;;;;;7.86;100.00;99805.72;5306638;28;20054;-80
2023/01/09 13:58:50;;;;;;;15.45;7.78;;;;;;;7.90;100.00;99812.25;5295827;28;20028;-81
2023/01/09 14:01:21;;;;;;;10.68;7.07;;;;;;;7.94;100.00;99816.09;5295356;28;20563;-79
2023/01/09 14:04:11;;;;;;;14.65;7.53;;;;;;;8.04;100.00;99829.75;5284713;28;20078;-82
2023/01/09 14:07:22;;;;;;;9.50;6.82;;;;;;;8.02;100.00;99840.25;5284010;28;20048;-85
2023/01/09 14:10:03;;;;;;;8.95;7.30;;;;;;;8.07;100.00;99845.72;5296067;28;20020;-83
2023/01/09 14:12:40;;;;;;;11.50;7.78;;;;;;;8.07;100.00;99841.00;5305638;28;20024;-82
2023/01/09 14:15:24;;;;;;;18.40;12.90;;;;;;;8.09;100.00;99851.78;5308732;28;20463;-82
2023/01/09 14:18:01;;;;;;;11.30;8.07;;;;;;;8.14;100.00;99850.88;5305690;28;20039;-79
2023/01/09 14:20:37;;;;;;;12.98;8.07;;;;;;;8.06;100.00;99867.00;5299632;28;20524;-80
2023/01/09 14:23:22;;;;;;;11.80;7.15;;;;;;;8.06;100.00;99871.69;5303842;28;20031;-78
2023/01/09 14:25:55;;;;;;;9.15;6.90;;;;;;;8.03;100.00;99884.16;5301691;28;20033;-78
2023/01/09 14:28:29;;;;;;;9.60;7.03;;;;;;;8.22;100.00;99886.94;5288532;28;20046;-81
2023/01/09 14:31:01;;;;;;;8.23;6.40;;;;;;;8.06;100.00;99888.28;5283415;28;20024;-74
2023/01/09 14:33:34;;;;;;;9.82;6.07;;;;;;;8.01;100.00;99893.84;5286770;28;20059;-73
2023/01/09 14:36:20;;;;;;;10.40;7.65;;;;;;;8.00;100.00;99900.47;5287842;28;20038;-73
2023/01/09 14:38:57;;;;;;;8.40;6.78;;;;;;;7.93;100.00;99911.09;5287071;28;20066;-74
2023/01/09 14:41:59;;;;;;;11.10;6.10;;;;;;;7.97;100.00;99909.38;5282724;28;20025;-79
2023/01/09 14:44:55;;;;;;;10.75;5.95;;;;;;;7.90;100.00;99922.69;5292860;28;20024;-77
2023/01/09 14:47:29;;;;;;;13.77;10.68;;;;;;;7.80;100.00;99932.75;5303953;28;20016;-77
2023/01/09 14:50:36;;;;;;;10.73;6.18;;;;;;;7.81;100.00;99931.63;5284998;28;20119;-77
2023/01/09 14:53:28;;;;;;;11.40;7.28;;;;;;;7.72;100.00;99936.16;5282849;28;20040;-75
2023/01/09 14:56:02;;;;;;;12.75;7.07;;;;;;;7.71;100.00;99951.06;5290111;28;20033;-77
2023/01/09 14:58:42;;;;;;;8.98;6.18;;;;;;;7.66;100.00;99962.16;5302013;28;20048;-76
2023/01/09 15:01:24;;;;;;;12.25;6.50;;;;;;;7.66;100.00;99970.44;5293420;28;20036;-83
2023/01/09 15:04:03;;;;;;;9.60;5.70;;;;;;;7.59;100.00;99981.84;5293553;28;20020;-83
2023/01/09 15:06:41;;;;;;;12.05;7.13;;;;;;;7.47;100.00;99980.56;5293725;28;20071;-85
2023/01/09 15:09:42;;;;;;;9.10;5.32;;;;;;;7.40;100.00;99980.91;5283692;28;20074;-79
2023/01/09 15:12:22;;;;;;;7.38;4.70;;;;;;;7.45;100.00;99994.66;5298247;28;20135;-77
2023/01/09 15:14:58;;;;;;;14.68;7.63;;;;;;;7.30;100.00;100003.88;5291677;28;20139;-77
2023/01/09 15:17:35;;;;;;;10.30;4.63;;;;;;;7.19;100.00;100016.09;5298770;28;20475;-83
2023/01/09 15:20:15;;;;;;;6.78;3.53;;;;;;;6.91;100.00;100023.19;5282587;28;20025;-79
2023/01/09 15:22:50;;;;;;;9.07;3.78;;;;;;;6.75;100.00;100033.50;5282111;28;20088;-77
2023/01/09 15:25:29;;;;;;;8.27;4.10;;;;;;;6.83;100.00;100027.38;5294507;28;20028;-75
2023/01/09 15:28:22;;;;;;;8.23;3.35;;;;;;;6.80;100.00;100036.22;5306156;28;20043;-80
2023/01/09 15:31:08;;;;;;;7.70;4.70;;;;;;;6.84;100.00;100048.31;5297281;28;20039;-76
2023/01/09 15:33:42;;;;;;;9.80;6.22;;;;;;;6.92;100.00;100039.44;5301625;28;20024;-80
2023/01/09 15:36:20;;;;;;;5.30;3.63;;;;;;;6.95;100.00;100047.16;5290405;28;20148;-79
2023/01/09 15:38:53;;;;;;;9.57;5.15;;;;;;;6.95;100.00;100051.81;5288692;28;20421;-78
2023/01/09 15:44:25;;;;;;;13.70;6.93;;;;;;;7.06;100.00;100063.63;5290291;28;20032;-79
2023/01/09 15:46:58;;;;;;;7.93;6.00;;;;;;;7.17;100.00;100066.03;5309315;28;20051;-74
2023/01/09 15:49:32;;;;;;;8.43;5.18;;;;;;;7.10;100.00;100073.78;5308069;28;20026;-75
2023/01/09 15:52:05;;;;;;;11.70;7.70;;;;;;;7.15;100.00;100073.75;5307411;28;20043;-78
2023/01/09 15:54:39;;;;;;;8.15;4.72;;;;;;;7.22;100.00;100090.00;5308175;28;20478;-77
2023/01/09 15:57:25;;;;;;;5.28;2.70;;;;;;;7.14;100.00;100088.66;5295920;28;20395;-77
2023/01/09 16:00:33;;;;;;;5.32;3.10;;;;;;;7.10;100.00;100093.09;5307461;28;20028;-79
2023/01/09 16:03:17;;;;;;;6.05;2.38;;;;;;;6.90;100.00;100102.31;5300218;28;20028;-86
2023/01/09 16:05:54;;;;;;;9.35;3.90;;;;;;;6.85;100.00;100105.09;5299348;28;20119;-82
2023/01/09 16:08:29;;;;;;;8.60;2.95;;;;;;;6.87;100.00;100104.78;5297250;28;20043;-74
2023/01/09 16:11:09;;;;;;;8.60;3.30;;;;;;;6.92;100.00;100107.53;5286177;28;20040;-74
2023/01/09 16:13:45;;;;;;;7.13;3.03;;;;;;;7.00;100.00;100106.09;5283983;28;20105;-75
2023/01/09 16:16:26;;;;;;;8.77;3.85;;;;;;;6.99;100.00;100104.47;5285250;28;20118;-75
2023/01/09 16:18:58;;;;;;;6.63;2.58;;;;;;;6.93;100.00;100110.00;5287381;28;20029;-80
2023/01/09 16:21:35;;;;;;;6.47;2.90;;;;;;;6.99;100.00;100112.75;5302633;28;20029;-82
2023/01/09 16:24:12;;;;;;;7.03;2.90;;;;;;;6.96;100.00;100120.47;5295544;28;20107;-79
2023/01/09 16:26:44;;;;;;;9.60;2.88;;;;;;;6.87;100.00;100119.41;5293238;28;20549;-81
2023/01/09 16:29:36;;;;;;;7.15;3.47;;;;;;;7.03;100.00;100122.06;5296897;28;20024;-83
2023/01/09 16:32:20;;;;;;;6.35;3.03;;;;;;;6.93;100.00;100128.50;5290248;28;20044;-83
2023/01/09 16:34:59;;;;;;;7.03;3.35;;;;;;;6.96;100.00;100131.50;5292497;28;20039;-82
2023/01/09 16:37:31;;;;;;;10.57;3.50;;;;;;;6.98;100.00;100139.50;5300334;28;20374;-82
